This demonstration page uses our WeatherBlox Daily Observations layout. Learn more.

38.89511, -77.03637

Hourly Observations for June 15, 2018

Temp ( °F °C ) Dew Point ( °F °C ) Humidity (%) Winds ( mph kmh ) Pressure ( in mb ) Visibility ( mi km ) Precip ( " mm )
12:52 am 00:52 Clear 73 22.8 56 13.3 55 55 NW 5 7 29.94 1014 10 16.09344 0 0
1:52 am 01:52 Clear 75 23.9 51 10.6 43 43 NW 10 17 29.94 1014 10 16.09344 0 0
2:52 am 02:52 Clear 72 22.2 52 11.1 50 50 WNW 7 11 29.94 1014 10 16.09344 0 0
3:52 am 03:52 Clear 72 22.2 52 11.1 50 50 NW 9 15 29.94 1014 10 16.09344 0 0
4:52 am 04:52 Mostly Clear 70 21.1 52 11.1 53 53 WNW 5 7 29.94 1014 10 16.09344 0 0
5:52 am 05:52 Mostly Cloudy 68 20 52 11.1 57 57 NW 7 11 29.97 1015 10 16.09344 0 0
6:52 am 06:52 Cloudy 70 21.1 55 12.8 59 59 N 6 9 29.97 1015 10 16.09344 0 0
7:52 am 07:52 Cloudy 72 22.2 52 11.1 50 50 NNW 10 17 29.97 1015 10 16.09344 0 0
8:52 am 08:52 Mostly Cloudy 76 24.4 50 10 40 40 NNW 6 9 30 1016 10 16.09344 0 0
9:52 am 09:52 Mostly Cloudy 78 25.6 50 10 37 37 NW 10 17 30 1016 10 16.09344 0 0
10:52 am 10:52 Mostly Cloudy 80 26.7 51 10.6 37 37 NNW 8 13 30 1016 10 16.09344 0 0
11:52 am 11:52 Mostly Cloudy 81 27.2 50 10 34 34 NNW 7 11 29.97 1015 10 16.09344 0 0
12:52 pm 12:52 Mostly Cloudy 82 27.8 49 9.4 32 32 Calm 29.97 1015 10 16.09344 0 0
1:52 pm 13:52 Partly Cloudy 83 28.3 49 9.4 31 31 undefined N/A 29.97 1015 10 16.09344 0 0
2:52 pm 14:52 Mostly Sunny 83 28.3 51 10.6 33 33 N 6 9 29.97 1015 10 16.09344 0 0
3:52 pm 15:52 Mostly Sunny 84 28.9 50 10 31 31 WNW 16 26 29.97 1015 10 16.09344 0 0
4:52 pm 16:52 Mostly Sunny 84 28.9 47 8.3 27 27 N 12 19 29.94 1014 10 16.09344 0 0
5:52 pm 17:52 Partly Cloudy 84 28.9 45 7.2 25 25 NW 18 30 29.94 1014 10 16.09344 0 0
6:52 pm 18:52 Mostly Sunny 82 27.8 49 9.4 32 32 N 12 19 29.94 1014 10 16.09344 0 0
7:52 pm 19:52 Partly Cloudy 80 26.7 51 10.6 37 37 N 10 17 29.97 1015 10 16.09344 0 0
8:52 pm 20:52 Partly Cloudy 76 24.4 55 12.8 48 48 NE 6 9 29.97 1015 10 16.09344 0 0
9:52 pm 21:52 Mostly Clear 74 23.3 56 13.3 54 54 S 5 7 30 1016 10 16.09344 0 0
10:52 pm 22:52 Clear 72 22.2 56 13.3 57 57 S 6 9 30 1016 10 16.09344 0 0
11:52 pm 23:52 Clear 72 22.2 56 13.3 57 57 Calm 30.03 1017 10 16.09344 0 0

Powered by AerisWeather